No particular awareness of the weather is required.    There are no Weather-warnings


Meteo18 Weather Cam more information Meteo18 Weather Cam


Thunder radar more information blitzortung!


Rain radar more information rain snow radar


Visit our other weather sites:

Template documentation
and downloads

And another site



Weather Underground History page Text

Daily Summary for July 27, 2017 Units:  Both    English   Metric
« Previous Day
Next Day »
Daily Weekly Monthly Yearly Custom
  High: Low: Average:
Temperature: 71.6 °F /  22.0 °C 61.2 °F /  16.2 °C 65.1 °F /  18.4 °C
Dew Point: 66.9 °F /  19.4 °C 59.2 °F /  15.1 °C 62.4 °F /  16.9 °C
Humidity: 96 % 78 % 91 %
Wind Speed: 17 mph /  27.4 km/h - 4.5 mph /  7.2 km/h
Wind Gust: 21 mph /  33.8 km/h - -
Wind:- - WSW
Pressure: 30 in /  1014.8 hPa 29.9 in /  1011.7 hPa -
Precipitation: 0.23 in /  5.8 mm    
Historical Graphs
 
 
Tabular Data for July 27, 2017
Time Temperature Dew Point Pressure Wind Wind Speed Wind Gust Humidity Rainfall Rate (Hourly)
00:02 64.6 °F /  18.1 °C 62.4 °F /  16.9 °C 30 in /  1014.4 hPa SSW 9 mph /  14.5 km/h 10 mph /  16.1 km/h 93 % 0 in /  0.0 mm
00:12 64.6 °F /  18.1 °C 62.4 °F /  16.9 °C 30 in /  1014.4 hPa SSW 5 mph /  8.0 km/h 10 mph /  16.1 km/h 93 % 0 in /  0.0 mm
00:17 64.6 °F /  18.1 °C 62.4 °F /  16.9 °C 30 in /  1014.8 hPa WSW 2 mph /  3.2 km/h 12 mph /  19.3 km/h 93 % 0 in /  0.0 mm
00:22 64.6 °F /  18.1 °C 62.4 °F /  16.9 °C 30 in /  1014.8 hPa SW 3 mph /  4.8 km/h 8 mph /  12.9 km/h 93 % 0 in /  0.0 mm
00:32 64.4 °F /  18.0 °C 62.4 °F /  16.9 °C 30 in /  1014.8 hPa SW 3 mph /  4.8 km/h 9 mph /  14.5 km/h 93 % 0 in /  0.0 mm
00:37 64.4 °F /  18.0 °C 62.4 °F /  16.9 °C 30 in /  1014.8 hPa WSW 3 mph /  4.8 km/h 9 mph /  14.5 km/h 93 % 0 in /  0.0 mm
00:42 64.4 °F /  18.0 °C 62.4 °F /  16.9 °C 30 in /  1014.8 hPa SW 6 mph /  9.7 km/h 9 mph /  14.5 km/h 93 % 0 in /  0.0 mm
00:47 64.2 °F /  17.9 °C 61.9 °F /  16.6 °C 30 in /  1014.8 hPa SSW 3 mph /  4.8 km/h 9 mph /  14.5 km/h 92 % 0 in /  0.0 mm
00:52 64.2 °F /  17.9 °C 61.9 °F /  16.6 °C 30 in /  1014.8 hPa West 6 mph /  9.7 km/h 10 mph /  16.1 km/h 92 % 0 in /  0.0 mm
01:02 64 °F /  17.8 °C 61.7 °F /  16.5 °C 30 in /  1014.4 hPa SSW 2 mph /  3.2 km/h 10 mph /  16.1 km/h 92 % 0 in /  0.0 mm
01:12 63.7 °F /  17.6 °C 61.3 °F /  16.3 °C 30 in /  1014.4 hPa WSW 2 mph /  3.2 km/h 10 mph /  16.1 km/h 92 % 0 in /  0.0 mm
01:17 63.5 °F /  17.5 °C 61.2 °F /  16.2 °C 30 in /  1014.4 hPa WSW 2 mph /  3.2 km/h 8 mph /  12.9 km/h 92 % 0 in /  0.0 mm
01:22 63.3 °F /  17.4 °C 61 °F /  16.1 °C 30 in /  1014.4 hPa SW 8 mph /  12.9 km/h 8 mph /  12.9 km/h 92 % 0 in /  0.0 mm
01:27 63.3 °F /  17.4 °C 61 °F /  16.1 °C 30 in /  1014.4 hPa SSW 3 mph /  4.8 km/h 8 mph /  12.9 km/h 92 % 0 in /  0.0 mm
01:32 63.1 °F /  17.3 °C 60.8 °F /  16.0 °C 30 in /  1014.4 hPa SW 3 mph /  4.8 km/h 8 mph /  12.9 km/h 92 % 0 in /  0.0 mm
01:37 63.1 °F /  17.3 °C 61.2 °F /  16.2 °C 30 in /  1014.4 hPa SW 3 mph /  4.8 km/h 8 mph /  12.9 km/h 93 % 0 in /  0.0 mm
01:42 63 °F /  17.2 °C 61 °F /  16.1 °C 30 in /  1014.4 hPa SW 5 mph /  8.0 km/h 8 mph /  12.9 km/h 93 % 0 in /  0.0 mm
01:47 63 °F /  17.2 °C 61 °F /  16.1 °C 30 in /  1014.4 hPa SSW 1 mph /  1.6 km/h 8 mph /  12.9 km/h 93 % 0 in /  0.0 mm
01:52 62.8 °F /  17.1 °C 60.8 °F /  16.0 °C 30 in /  1014.4 hPa SW 5 mph /  8.0 km/h 8 mph /  12.9 km/h 93 % 0 in /  0.0 mm
01:57 62.8 °F /  17.1 °C 60.8 °F /  16.0 °C 30 in /  1014.4 hPa SW 3 mph /  4.8 km/h 7 mph /  11.3 km/h 93 % 0 in /  0.0 mm
02:02 62.6 °F /  17.0 °C 60.6 °F /  15.9 °C 30 in /  1014.4 hPa SSW 1 mph /  1.6 km/h 7 mph /  11.3 km/h 93 % 0 in /  0.0 mm
02:12 62.4 °F /  16.9 °C 60.4 °F /  15.8 °C 30 in /  1014.4 hPa SW 3 mph /  4.8 km/h 7 mph /  11.3 km/h 93 % 0 in /  0.0 mm
02:17 62.4 °F /  16.9 °C 60.4 °F /  15.8 °C 30 in /  1014.4 hPa SW 4 mph /  6.4 km/h 8 mph /  12.9 km/h 93 % 0 in /  0.0 mm
02:22 62.4 °F /  16.9 °C 60.1 °F /  15.6 °C 30 in /  1014.4 hPa SW 3 mph /  4.8 km/h 9 mph /  14.5 km/h 92 % 0 in /  0.0 mm
02:27 62.4 °F /  16.9 °C 60.1 °F /  15.6 °C 30 in /  1014.4 hPa SSW 2 mph /  3.2 km/h 9 mph /  14.5 km/h 92 % 0 in /  0.0 mm
02:32 62.2 °F /  16.8 °C 59.9 °F /  15.5 °C 30 in /  1014.4 hPa SW 5 mph /  8.0 km/h 9 mph /  14.5 km/h 92 % 0 in /  0.0 mm
02:37 62.2 °F /  16.8 °C 59.9 °F /  15.5 °C 30 in /  1014.4 hPa SW 2 mph /  3.2 km/h 7 mph /  11.3 km/h 92 % 0 in /  0.0 mm
02:42 62.1 °F /  16.7 °C 59.7 °F /  15.4 °C 30 in /  1014.4 hPa WSW 6 mph /  9.7 km/h 7 mph /  11.3 km/h 92 % 0 in /  0.0 mm
02:47 62.1 °F /  16.7 °C 59.7 °F /  15.4 °C 30 in /  1014.4 hPa WSW 3 mph /  4.8 km/h 7 mph /  11.3 km/h 92 % 0 in /  0.0 mm
02:52 62.1 °F /  16.7 °C 59.7 °F /  15.4 °C 30 in /  1014.4 hPa SW 3 mph /  4.8 km/h 7 mph /  11.3 km/h 92 % 0 in /  0.0 mm
03:02 62.1 °F /  16.7 °C 59.7 °F /  15.4 °C 29.9 in /  1014.1 hPa SW 3 mph /  4.8 km/h 8 mph /  12.9 km/h 92 % 0 in /  0.0 mm
03:07 62.1 °F /  16.7 °C 59.7 °F /  15.4 °C 29.9 in /  1014.1 hPa SW 1 mph /  1.6 km/h 9 mph /  14.5 km/h 92 % 0 in /  0.0 mm
03:12 62.1 °F /  16.7 °C 59.7 °F /  15.4 °C 29.9 in /  1014.1 hPa SW 4 mph /  6.4 km/h 9 mph /  14.5 km/h 92 % 0 in /  0.0 mm
03:17 62.1 °F /  16.7 °C 59.7 °F /  15.4 °C 29.9 in /  1014.1 hPa SSW 2 mph /  3.2 km/h 9 mph /  14.5 km/h 92 % 0 in /  0.0 mm
03:22 62.1 °F /  16.7 °C 59.7 °F /  15.4 °C 29.9 in /  1014.1 hPa SW 2 mph /  3.2 km/h 8 mph /  12.9 km/h 92 % 0 in /  0.0 mm
03:32 62.1 °F /  16.7 °C 59.7 °F /  15.4 °C 29.9 in /  1014.1 hPa SW 4 mph /  6.4 km/h 10 mph /  16.1 km/h 92 % 0 in /  0.0 mm
03:37 62.1 °F /  16.7 °C 59.7 °F /  15.4 °C 29.9 in /  1014.1 hPa WSW 5 mph /  8.0 km/h 10 mph /  16.1 km/h 92 % 0 in /  0.0 mm
03:47 62.1 °F /  16.7 °C 59.7 °F /  15.4 °C 29.9 in /  1014.1 hPa SSW 3 mph /  4.8 km/h 10 mph /  16.1 km/h 92 % 0 in /  0.0 mm
03:52 62.1 °F /  16.7 °C 59.7 °F /  15.4 °C 29.9 in /  1014.1 hPa SW 4 mph /  6.4 km/h 8 mph /  12.9 km/h 92 % 0 in /  0.0 mm
04:02 61.9 °F /  16.6 °C 59.9 °F /  15.5 °C 29.9 in /  1013.8 hPa SW 4 mph /  6.4 km/h 6 mph /  9.7 km/h 93 % 0 in /  0.0 mm
04:12 61.9 °F /  16.6 °C 59.9 °F /  15.5 °C 29.9 in /  1013.8 hPa West 3 mph /  4.8 km/h 7 mph /  11.3 km/h 93 % 0 in /  0.0 mm
04:17 61.9 °F /  16.6 °C 59.9 °F /  15.5 °C 29.9 in /  1013.8 hPa SSW 3 mph /  4.8 km/h 7 mph /  11.3 km/h 93 % 0 in /  0.0 mm
04:22 61.9 °F /  16.6 °C 59.9 °F /  15.5 °C 29.9 in /  1014.1 hPa SW 3 mph /  4.8 km/h 6 mph /  9.7 km/h 93 % 0 in /  0.0 mm
04:32 61.9 °F /  16.6 °C 59.9 °F /  15.5 °C 29.9 in /  1014.1 hPa SW 3 mph /  4.8 km/h 8 mph /  12.9 km/h 93 % 0 in /  0.0 mm
04:37 62.1 °F /  16.7 °C 60.1 °F /  15.6 °C 29.9 in /  1014.1 hPa SW 5 mph /  8.0 km/h 8 mph /  12.9 km/h 93 % 0 in /  0.0 mm
04:42 62.1 °F /  16.7 °C 60.1 °F /  15.6 °C 29.9 in /  1014.1 hPa SW 4 mph /  6.4 km/h 10 mph /  16.1 km/h 93 % 0 in /  0.0 mm
04:47 62.1 °F /  16.7 °C 60.1 °F /  15.6 °C 29.9 in /  1013.8 hPa SSE 3 mph /  4.8 km/h 10 mph /  16.1 km/h 93 % 0 in /  0.0 mm
04:52 61.9 °F /  16.6 °C 59.9 °F /  15.5 °C 29.9 in /  1013.8 hPa SW 5 mph /  8.0 km/h 10 mph /  16.1 km/h 93 % 0 in /  0.0 mm
04:57 61.9 °F /  16.6 °C 59.9 °F /  15.5 °C 29.9 in /  1013.8 hPa SW 2 mph /  3.2 km/h 10 mph /  16.1 km/h 93 % 0 in /  0.0 mm
05:02 61.9 °F /  16.6 °C 59.9 °F /  15.5 °C 29.9 in /  1013.8 hPa WSW 3 mph /  4.8 km/h 11 mph /  17.7 km/h 93 % 0 in /  0.0 mm
05:12 61.7 °F /  16.5 °C 59.7 °F /  15.4 °C 29.9 in /  1013.8 hPa SSW 2 mph /  3.2 km/h 11 mph /  17.7 km/h 93 % 0 in /  0.0 mm
05:17 61.7 °F /  16.5 °C 59.7 °F /  15.4 °C 29.9 in /  1013.8 hPa South 1 mph /  1.6 km/h 11 mph /  17.7 km/h 93 % 0 in /  0.0 mm
05:22 61.7 °F /  16.5 °C 59.4 °F /  15.2 °C 29.9 in /  1013.8 hPa SW 5 mph /  8.0 km/h 8 mph /  12.9 km/h 92 % 0 in /  0.0 mm
05:32 61.5 °F /  16.4 °C 59.5 °F /  15.3 °C 29.9 in /  1013.8 hPa SSW 1 mph /  1.6 km/h 7 mph /  11.3 km/h 93 % 0 in /  0.0 mm
05:37 61.5 °F /  16.4 °C 59.5 °F /  15.3 °C 29.9 in /  1013.8 hPa SW 3 mph /  4.8 km/h 7 mph /  11.3 km/h 93 % 0 in /  0.0 mm
05:42 61.5 °F /  16.4 °C 59.5 °F /  15.3 °C 29.9 in /  1013.8 hPa West 1 mph /  1.6 km/h 5 mph /  8.0 km/h 93 % 0 in /  0.0 mm
05:47 61.5 °F /  16.4 °C 59.5 °F /  15.3 °C 29.9 in /  1013.8 hPa SW 1 mph /  1.6 km/h 5 mph /  8.0 km/h 93 % 0 in /  0.0 mm
05:57 61.5 °F /  16.4 °C 59.2 °F /  15.1 °C 29.9 in /  1013.8 hPa SW 2 mph /  3.2 km/h 4 mph /  6.4 km/h 92 % 0 in /  0.0 mm
06:02 61.5 °F /  16.4 °C 59.2 °F /  15.1 °C 29.9 in /  1013.8 hPa SW 3 mph /  4.8 km/h 7 mph /  11.3 km/h 92 % 0 in /  0.0 mm
06:12 61.5 °F /  16.4 °C 59.2 °F /  15.1 °C 29.9 in /  1013.8 hPa SW 2 mph /  3.2 km/h 10 mph /  16.1 km/h 92 % 0 in /  0.0 mm
06:17 61.5 °F /  16.4 °C 59.2 °F /  15.1 °C 29.9 in /  1013.8 hPa WSW 3 mph /  4.8 km/h 10 mph /  16.1 km/h 92 % 0 in /  0.0 mm
06:22 61.5 °F /  16.4 °C 59.2 °F /  15.1 °C 29.9 in /  1013.8 hPa SW 2 mph /  3.2 km/h 7 mph /  11.3 km/h 92 % 0 in /  0.0 mm
06:32 61.5 °F /  16.4 °C 59.5 °F /  15.3 °C 29.9 in /  1013.8 hPa WSW 2 mph /  3.2 km/h 7 mph /  11.3 km/h 93 % 0 in /  0.0 mm
06:37 61.5 °F /  16.4 °C 59.5 °F /  15.3 °C 29.9 in /  1013.8 hPa SW 4 mph /  6.4 km/h 5 mph /  8.0 km/h 93 % 0 in /  0.0 mm
06:42 61.5 °F /  16.4 °C 59.5 °F /  15.3 °C 29.9 in /  1013.8 hPa WSW 3 mph /  4.8 km/h 5 mph /  8.0 km/h 93 % 0 in /  0.0 mm
06:47 61.5 °F /  16.4 °C 59.5 °F /  15.3 °C 29.9 in /  1013.8 hPa WSW 5 mph /  8.0 km/h 5 mph /  8.0 km/h 93 % 0 in /  0.0 mm
06:52 61.5 °F /  16.4 °C 59.5 °F /  15.3 °C 29.9 in /  1013.8 hPa WSW 2 mph /  3.2 km/h 9 mph /  14.5 km/h 93 % 0 in /  0.0 mm
06:57 61.3 °F /  16.3 °C 59.5 °F /  15.3 °C 29.9 in /  1013.8 hPa SW 3 mph /  4.8 km/h 9 mph /  14.5 km/h 94 % 0 in /  0.0 mm
07:02 61.3 °F /  16.3 °C 59.5 °F /  15.3 °C 29.9 in /  1013.8 hPa SW 5 mph /  8.0 km/h 9 mph /  14.5 km/h 94 % 0 in /  0.0 mm
07:12 61.3 °F /  16.3 °C 59.5 °F /  15.3 °C 29.9 in /  1013.8 hPa SW 6 mph /  9.7 km/h 9 mph /  14.5 km/h 94 % 0 in /  0.0 mm
07:17 61.3 °F /  16.3 °C 59.5 °F /  15.3 °C 29.9 in /  1013.8 hPa SW 3 mph /  4.8 km/h 9 mph /  14.5 km/h 94 % 0 in /  0.0 mm
07:22 61.3 °F /  16.3 °C 59.5 °F /  15.3 °C 29.9 in /  1013.8 hPa WSW 5 mph /  8.0 km/h 9 mph /  14.5 km/h 94 % 0 in /  0.0 mm
07:32 61.3 °F /  16.3 °C 59.9 °F /  15.5 °C 29.9 in /  1013.8 hPa SW 5 mph /  8.0 km/h 9 mph /  14.5 km/h 95 % 0 in /  0.0 mm
07:37 61.3 °F /  16.3 °C 59.9 °F /  15.5 °C 29.9 in /  1013.8 hPa SSW 4 mph /  6.4 km/h 9 mph /  14.5 km/h 95 % 0 in /  0.0 mm
07:42 61.2 °F /  16.2 °C 59.7 °F /  15.4 °C 29.9 in /  1013.8 hPa WSW 9 mph /  14.5 km/h 10 mph /  16.1 km/h 95 % 0 in /  0.0 mm
07:47 61.2 °F /  16.2 °C 59.7 °F /  15.4 °C 29.9 in /  1013.8 hPa SSW 3 mph /  4.8 km/h 10 mph /  16.1 km/h 95 % 0 in /  0.0 mm
07:52 61.2 °F /  16.2 °C 59.7 °F /  15.4 °C 29.9 in /  1013.8 hPa SSW 7 mph /  11.3 km/h 11 mph /  17.7 km/h 95 % 0 in /  0.0 mm
08:02 61.2 °F /  16.2 °C 60.1 °F /  15.6 °C 29.9 in /  1014.1 hPa SW 7 mph /  11.3 km/h 11 mph /  17.7 km/h 96 % 0 in /  0.0 mm
08:12 61.2 °F /  16.2 °C 60.1 °F /  15.6 °C 29.9 in /  1013.8 hPa SW 7 mph /  11.3 km/h 11 mph /  17.7 km/h 96 % 0 in /  0.0 mm
08:17 61.2 °F /  16.2 °C 60.1 °F /  15.6 °C 29.9 in /  1014.1 hPa WSW 6 mph /  9.7 km/h 11 mph /  17.7 km/h 96 % 0 in /  0.0 mm
08:27 61.2 °F /  16.2 °C 60.1 °F /  15.6 °C 29.9 in /  1014.1 hPa SW 5 mph /  8.0 km/h 10 mph /  16.1 km/h 96 % 0.02 in /  0.5 mm
08:32 61.2 °F /  16.2 °C 60.1 °F /  15.6 °C 29.9 in /  1014.1 hPa SW 4 mph /  6.4 km/h 12 mph /  19.3 km/h 96 % 0.02 in /  0.5 mm
08:42 61.3 °F /  16.3 °C 60.3 °F /  15.7 °C 29.9 in /  1014.1 hPa SSW 5 mph /  8.0 km/h 10 mph /  16.1 km/h 96 % 0.02 in /  0.5 mm
08:52 61.5 °F /  16.4 °C 60.4 °F /  15.8 °C 29.9 in /  1014.1 hPa South 5 mph /  8.0 km/h 10 mph /  16.1 km/h 96 % 0.03 in /  0.8 mm
08:57 61.5 °F /  16.4 °C 60.4 °F /  15.8 °C 29.9 in /  1014.1 hPa SW 8 mph /  12.9 km/h 10 mph /  16.1 km/h 96 % 0.03 in /  0.8 mm
09:02 61.5 °F /  16.4 °C 60.4 °F /  15.8 °C 29.9 in /  1014.1 hPa WSW 6 mph /  9.7 km/h 13 mph /  20.9 km/h 96 % 0.03 in /  0.8 mm
09:12 61.5 °F /  16.4 °C 60.4 °F /  15.8 °C 29.9 in /  1013.8 hPa SW 6 mph /  9.7 km/h 13 mph /  20.9 km/h 96 % 0.03 in /  0.8 mm
09:17 61.5 °F /  16.4 °C 60.4 °F /  15.8 °C 29.9 in /  1014.1 hPa SW 6 mph /  9.7 km/h 13 mph /  20.9 km/h 96 % 0.03 in /  0.8 mm
09:22 61.5 °F /  16.4 °C 60.4 °F /  15.8 °C 29.9 in /  1014.1 hPa WSW 3 mph /  4.8 km/h 13 mph /  20.9 km/h 96 % 0.02 in /  0.5 mm
09:27 61.5 °F /  16.4 °C 60.4 °F /  15.8 °C 29.9 in /  1014.1 hPa WSW 6 mph /  9.7 km/h 13 mph /  20.9 km/h 96 % 0.02 in /  0.5 mm
09:32 61.5 °F /  16.4 °C 60.4 °F /  15.8 °C 29.9 in /  1014.1 hPa WSW 8 mph /  12.9 km/h 13 mph /  20.9 km/h 96 % 0.01 in /  0.3 mm
09:42 61.9 °F /  16.6 °C 60.8 °F /  16.0 °C 29.9 in /  1014.1 hPa SW 6 mph /  9.7 km/h 13 mph /  20.9 km/h 96 % 0.01 in /  0.3 mm
09:52 61.9 °F /  16.6 °C 60.8 °F /  16.0 °C 29.9 in /  1014.1 hPa SW 4 mph /  6.4 km/h 13 mph /  20.9 km/h 96 % 0 in /  0.0 mm
09:57 62.1 °F /  16.7 °C 61 °F /  16.1 °C 29.9 in /  1014.1 hPa WSW 5 mph /  8.0 km/h 13 mph /  20.9 km/h 96 % 0 in /  0.0 mm
10:02 62.1 °F /  16.7 °C 61 °F /  16.1 °C 29.9 in /  1014.1 hPa SW 6 mph /  9.7 km/h 13 mph /  20.9 km/h 96 % 0.01 in /  0.3 mm
10:12 62.2 °F /  16.8 °C 61.2 °F /  16.2 °C 29.9 in /  1014.1 hPa SW 4 mph /  6.4 km/h 11 mph /  17.7 km/h 96 % 0.01 in /  0.3 mm
10:17 62.2 °F /  16.8 °C 61.2 °F /  16.2 °C 29.9 in /  1014.1 hPa SW 9 mph /  14.5 km/h 11 mph /  17.7 km/h 96 % 0.01 in /  0.3 mm
10:22 62.2 °F /  16.8 °C 61.2 °F /  16.2 °C 29.9 in /  1014.1 hPa SW 4 mph /  6.4 km/h 12 mph /  19.3 km/h 96 % 0.02 in /  0.5 mm
10:32 62.4 °F /  16.9 °C 61.3 °F /  16.3 °C 29.9 in /  1014.1 hPa SW 6 mph /  9.7 km/h 14 mph /  22.5 km/h 96 % 0.02 in /  0.5 mm
10:37 62.6 °F /  17.0 °C 61.5 °F /  16.4 °C 29.9 in /  1014.1 hPa SW 7 mph /  11.3 km/h 14 mph /  22.5 km/h 96 % 0.02 in /  0.5 mm
10:42 62.8 °F /  17.1 °C 61.7 °F /  16.5 °C 29.9 in /  1013.8 hPa WSW 3 mph /  4.8 km/h 14 mph /  22.5 km/h 96 % 0.02 in /  0.5 mm
10:47 62.8 °F /  17.1 °C 61.7 °F /  16.5 °C 29.9 in /  1013.8 hPa SW 5 mph /  8.0 km/h 14 mph /  22.5 km/h 96 % 0.02 in /  0.5 mm
10:52 62.8 °F /  17.1 °C 61.7 °F /  16.5 °C 29.9 in /  1014.1 hPa SW 7 mph /  11.3 km/h 10 mph /  16.1 km/h 96 % 0.02 in /  0.5 mm
10:57 63 °F /  17.2 °C 61.9 °F /  16.6 °C 29.9 in /  1014.1 hPa SW 8 mph /  12.9 km/h 10 mph /  16.1 km/h 96 % 0.02 in /  0.5 mm
11:02 62.8 °F /  17.1 °C 61.7 °F /  16.5 °C 29.9 in /  1014.1 hPa SW 8 mph /  12.9 km/h 14 mph /  22.5 km/h 96 % 0.02 in /  0.5 mm
11:07 63 °F /  17.2 °C 61.9 °F /  16.6 °C 29.9 in /  1014.1 hPa SSW 3 mph /  4.8 km/h 14 mph /  22.5 km/h 96 % 0.02 in /  0.5 mm
11:12 63 °F /  17.2 °C 61.9 °F /  16.6 °C 29.9 in /  1013.8 hPa SW 10 mph /  16.1 km/h 14 mph /  22.5 km/h 96 % 0.02 in /  0.5 mm
11:17 63 °F /  17.2 °C 61.9 °F /  16.6 °C 29.9 in /  1013.8 hPa SW 6 mph /  9.7 km/h 14 mph /  22.5 km/h 96 % 0.02 in /  0.5 mm
11:22 63.1 °F /  17.3 °C 62.1 °F /  16.7 °C 29.9 in /  1013.8 hPa SW 6 mph /  9.7 km/h 14 mph /  22.5 km/h 96 % 0.02 in /  0.5 mm
11:27 63.3 °F /  17.4 °C 62.2 °F /  16.8 °C 29.9 in /  1013.8 hPa WSW 8 mph /  12.9 km/h 14 mph /  22.5 km/h 96 % 0.02 in /  0.5 mm
11:32 63.5 °F /  17.5 °C 62.4 °F /  16.9 °C 29.9 in /  1013.8 hPa SW 10 mph /  16.1 km/h 15 mph /  24.1 km/h 96 % 0.02 in /  0.5 mm
11:37 63.7 °F /  17.6 °C 62.6 °F /  17.0 °C 29.9 in /  1013.4 hPa SSW 8 mph /  12.9 km/h 15 mph /  24.1 km/h 96 % 0.02 in /  0.5 mm
11:42 63.9 °F /  17.7 °C 62.8 °F /  17.1 °C 29.9 in /  1013.8 hPa SW 17 mph /  27.4 km/h 17 mph /  27.4 km/h 96 % 0.02 in /  0.5 mm
11:47 63.7 °F /  17.6 °C 62.2 °F /  16.8 °C 29.9 in /  1013.4 hPa SW 9 mph /  14.5 km/h 17 mph /  27.4 km/h 95 % 0.02 in /  0.5 mm
11:52 63.9 °F /  17.7 °C 62.8 °F /  17.1 °C 29.9 in /  1013.4 hPa SW 7 mph /  11.3 km/h 17 mph /  27.4 km/h 96 % 0.02 in /  0.5 mm
12:02 63.7 °F /  17.6 °C 62.2 °F /  16.8 °C 29.9 in /  1013.4 hPa SSW 5 mph /  8.0 km/h 16 mph /  25.7 km/h 95 % 0.02 in /  0.5 mm
12:12 63.9 °F /  17.7 °C 62.4 °F /  16.9 °C 29.9 in /  1013.4 hPa SSW 6 mph /  9.7 km/h 16 mph /  25.7 km/h 95 % 0.02 in /  0.5 mm
12:17 64 °F /  17.8 °C 62.6 °F /  17.0 °C 29.9 in /  1013.4 hPa WSW 9 mph /  14.5 km/h 16 mph /  25.7 km/h 95 % 0.02 in /  0.5 mm
12:22 64 °F /  17.8 °C 63 °F /  17.2 °C 29.9 in /  1013.4 hPa South 11 mph /  17.7 km/h 15 mph /  24.1 km/h 96 % 0.01 in /  0.3 mm
12:32 64.2 °F /  17.9 °C 63.1 °F /  17.3 °C 29.9 in /  1013.1 hPa WSW 8 mph /  12.9 km/h 15 mph /  24.1 km/h 96 % 0.01 in /  0.3 mm
12:37 64.2 °F /  17.9 °C 62.8 °F /  17.1 °C 29.9 in /  1013.1 hPa WSW 9 mph /  14.5 km/h 16 mph /  25.7 km/h 95 % 0.01 in /  0.3 mm
12:42 64.6 °F /  18.1 °C 63.5 °F /  17.5 °C 29.9 in /  1013.1 hPa SW 7 mph /  11.3 km/h 16 mph /  25.7 km/h 96 % 0.01 in /  0.3 mm
12:47 64.6 °F /  18.1 °C 63.1 °F /  17.3 °C 29.9 in /  1013.1 hPa SW 13 mph /  20.9 km/h 16 mph /  25.7 km/h 95 % 0.01 in /  0.3 mm
12:52 64.8 °F /  18.2 °C 63.7 °F /  17.6 °C 29.9 in /  1013.1 hPa SW 8 mph /  12.9 km/h 16 mph /  25.7 km/h 96 % 0.01 in /  0.3 mm
13:02 64.8 °F /  18.2 °C 63.3 °F /  17.4 °C 29.9 in /  1013.1 hPa SW 8 mph /  12.9 km/h 16 mph /  25.7 km/h 95 % 0.01 in /  0.3 mm
13:12 64.8 °F /  18.2 °C 63.3 °F /  17.4 °C 29.9 in /  1013.1 hPa SW 6 mph /  9.7 km/h 16 mph /  25.7 km/h 95 % 0.01 in /  0.3 mm
13:17 64.8 °F /  18.2 °C 63.3 °F /  17.4 °C 29.9 in /  1013.1 hPa WSW 7 mph /  11.3 km/h 16 mph /  25.7 km/h 95 % 0.01 in /  0.3 mm
13:27 65.1 °F /  18.4 °C 63.7 °F /  17.6 °C 29.9 in /  1012.8 hPa SW 7 mph /  11.3 km/h 15 mph /  24.1 km/h 95 % 0.01 in /  0.3 mm
13:32 65.1 °F /  18.4 °C 63.7 °F /  17.6 °C 29.9 in /  1012.8 hPa SW 7 mph /  11.3 km/h 14 mph /  22.5 km/h 95 % 0.01 in /  0.3 mm
13:37 65.1 °F /  18.4 °C 63.7 °F /  17.6 °C 29.9 in /  1012.8 hPa WSW 6 mph /  9.7 km/h 14 mph /  22.5 km/h 95 % 0.01 in /  0.3 mm
13:42 65.3 °F /  18.5 °C 64 °F /  17.8 °C 29.9 in /  1012.8 hPa SW 2 mph /  3.2 km/h 14 mph /  22.5 km/h 96 % 0 in /  0.0 mm
13:52 65.5 °F /  18.6 °C 64 °F /  17.8 °C 29.9 in /  1012.8 hPa SW 6 mph /  9.7 km/h 14 mph /  22.5 km/h 95 % 0 in /  0.0 mm
13:57 65.7 °F /  18.7 °C 64.2 °F /  17.9 °C 29.9 in /  1012.8 hPa WSW 7 mph /  11.3 km/h 14 mph /  22.5 km/h 95 % 0 in /  0.0 mm
14:02 65.8 °F /  18.8 °C 64.4 °F /  18.0 °C 29.9 in /  1012.8 hPa WSW 5 mph /  8.0 km/h 16 mph /  25.7 km/h 95 % 0 in /  0.0 mm
14:12 65.8 °F /  18.8 °C 64.4 °F /  18.0 °C 29.9 in /  1012.8 hPa WSW 9 mph /  14.5 km/h 17 mph /  27.4 km/h 95 % 0.01 in /  0.3 mm
14:17 66.2 °F /  19.0 °C 64.8 °F /  18.2 °C 29.9 in /  1012.8 hPa SW 4 mph /  6.4 km/h 17 mph /  27.4 km/h 95 % 0.01 in /  0.3 mm
14:22 66.6 °F /  19.2 °C 65.1 °F /  18.4 °C 29.9 in /  1012.8 hPa West 8 mph /  12.9 km/h 19 mph /  30.6 km/h 95 % 0.01 in /  0.3 mm
14:32 66.6 °F /  19.2 °C 64.8 °F /  18.2 °C 29.9 in /  1012.8 hPa WSW 7 mph /  11.3 km/h 16 mph /  25.7 km/h 94 % 0.01 in /  0.3 mm
14:37 66.9 °F /  19.4 °C 65.1 °F /  18.4 °C 29.9 in /  1012.4 hPa SW 9 mph /  14.5 km/h 16 mph /  25.7 km/h 94 % 0.01 in /  0.3 mm
14:47 67.6 °F /  19.8 °C 65.3 °F /  18.5 °C 29.9 in /  1012.4 hPa SW 5 mph /  8.0 km/h 15 mph /  24.1 km/h 92 % 0.01 in /  0.3 mm
14:52 68 °F /  20.0 °C 65.7 °F /  18.7 °C 29.9 in /  1012.4 hPa SW 10 mph /  16.1 km/h 14 mph /  22.5 km/h 92 % 0.01 in /  0.3 mm
15:02 67.8 °F /  19.9 °C 65.1 °F /  18.4 °C 29.9 in /  1012.4 hPa WSW 13 mph /  20.9 km/h 15 mph /  24.1 km/h 91 % 0.01 in /  0.3 mm
15:12 67.6 °F /  19.8 °C 64.9 °F /  18.3 °C 29.9 in /  1012.4 hPa WSW 8 mph /  12.9 km/h 15 mph /  24.1 km/h 91 % 0 in /  0.0 mm
15:17 68.4 °F /  20.2 °C 66 °F /  18.9 °C 29.9 in /  1012.4 hPa SW 4 mph /  6.4 km/h 15 mph /  24.1 km/h 92 % 0.01 in /  0.3 mm
15:22 68.7 °F /  20.4 °C 65.3 °F /  18.5 °C 29.9 in /  1012.4 hPa SW 7 mph /  11.3 km/h 13 mph /  20.9 km/h 89 % 0.01 in /  0.3 mm
15:27 68.9 °F /  20.5 °C 65.5 °F /  18.6 °C 29.9 in /  1012.4 hPa WSW 7 mph /  11.3 km/h 14 mph /  22.5 km/h 89 % 0.01 in /  0.3 mm
15:32 69.4 °F /  20.8 °C 66 °F /  18.9 °C 29.9 in /  1012.1 hPa SW 6 mph /  9.7 km/h 14 mph /  22.5 km/h 89 % 0.01 in /  0.3 mm
15:42 68.9 °F /  20.5 °C 65.1 °F /  18.4 °C 29.9 in /  1012.1 hPa WSW 17 mph /  27.4 km/h 17 mph /  27.4 km/h 88 % 0.01 in /  0.3 mm
15:47 68.2 °F /  20.1 °C 64.8 °F /  18.2 °C 29.9 in /  1012.4 hPa SSW 4 mph /  6.4 km/h 21 mph /  33.8 km/h 89 % 0.01 in /  0.3 mm
15:52 68.2 °F /  20.1 °C 65.5 °F /  18.6 °C 29.9 in /  1012.1 hPa SSW 10 mph /  16.1 km/h 21 mph /  33.8 km/h 91 % 0.01 in /  0.3 mm
16:02 68.4 °F /  20.2 °C 65.7 °F /  18.7 °C 29.9 in /  1012.4 hPa West 6 mph /  9.7 km/h 18 mph /  29.0 km/h 91 % 0.01 in /  0.3 mm
16:12 67.3 °F /  19.6 °C 63.7 °F /  17.6 °C 29.9 in /  1012.1 hPa WNW 11 mph /  17.7 km/h 20 mph /  32.2 km/h 88 % 0.01 in /  0.3 mm
16:17 67.1 °F /  19.5 °C 64 °F /  17.8 °C 29.9 in /  1012.1 hPa WNW 8 mph /  12.9 km/h 20 mph /  32.2 km/h 90 % 0 in /  0.0 mm
16:22 67.3 °F /  19.6 °C 64.2 °F /  17.9 °C 29.9 in /  1012.1 hPa West 6 mph /  9.7 km/h 15 mph /  24.1 km/h 90 % 0 in /  0.0 mm
16:27 67.6 °F /  19.8 °C 64.6 °F /  18.1 °C 29.9 in /  1012.1 hPa West 6 mph /  9.7 km/h 15 mph /  24.1 km/h 90 % 0 in /  0.0 mm
16:32 67.8 °F /  19.9 °C 64.8 °F /  18.2 °C 29.9 in /  1012.1 hPa West 4 mph /  6.4 km/h 13 mph /  20.9 km/h 90 % 0 in /  0.0 mm
16:37 68.2 °F /  20.1 °C 64.8 °F /  18.2 °C 29.9 in /  1012.1 hPa WSW 5 mph /  8.0 km/h 12 mph /  19.3 km/h 89 % 0 in /  0.0 mm
16:42 68.4 °F /  20.2 °C 65.3 °F /  18.5 °C 29.9 in /  1012.1 hPa West 2 mph /  3.2 km/h 12 mph /  19.3 km/h 90 % 0 in /  0.0 mm
16:47 68.4 °F /  20.2 °C 64.9 °F /  18.3 °C 29.9 in /  1011.7 hPa WSW 4 mph /  6.4 km/h 12 mph /  19.3 km/h 89 % 0 in /  0.0 mm
16:52 68.5 °F /  20.3 °C 65.1 °F /  18.4 °C 29.9 in /  1012.1 hPa WNW 8 mph /  12.9 km/h 8 mph /  12.9 km/h 89 % 0 in /  0.0 mm
16:57 67.8 °F /  19.9 °C 64.8 °F /  18.2 °C 29.9 in /  1012.1 hPa WNW 8 mph /  12.9 km/h 8 mph /  12.9 km/h 90 % 0.05 in /  1.3 mm
17:02 67.3 °F /  19.6 °C 64.9 °F /  18.3 °C 29.9 in /  1012.1 hPa West 4 mph /  6.4 km/h 12 mph /  19.3 km/h 92 % 0.05 in /  1.3 mm
17:12 66.7 °F /  19.3 °C 64.4 °F /  18.0 °C 29.9 in /  1012.1 hPa West 4 mph /  6.4 km/h 12 mph /  19.3 km/h 92 % 0.08 in /  2.0 mm
17:17 66.9 °F /  19.4 °C 64.8 °F /  18.2 °C 29.9 in /  1012.1 hPa West 7 mph /  11.3 km/h 10 mph /  16.1 km/h 93 % 0.13 in /  3.3 mm
17:22 67.1 °F /  19.5 °C 64.9 °F /  18.3 °C 29.9 in /  1012.1 hPa West 5 mph /  8.0 km/h 11 mph /  17.7 km/h 93 % 0.13 in /  3.3 mm
17:27 67.5 °F /  19.7 °C 65.3 °F /  18.5 °C 29.9 in /  1012.1 hPa West 4 mph /  6.4 km/h 11 mph /  17.7 km/h 93 % 0.13 in /  3.3 mm
17:32 67.8 °F /  19.9 °C 65.5 °F /  18.6 °C 29.9 in /  1012.1 hPa SW 4 mph /  6.4 km/h 11 mph /  17.7 km/h 92 % 0.13 in /  3.3 mm
17:37 68.5 °F /  20.3 °C 66.2 °F /  19.0 °C 29.9 in /  1012.1 hPa SW 5 mph /  8.0 km/h 12 mph /  19.3 km/h 92 % 0.13 in /  3.3 mm
17:42 68.7 °F /  20.4 °C 66.4 °F /  19.1 °C 29.9 in /  1012.1 hPa SW 5 mph /  8.0 km/h 12 mph /  19.3 km/h 92 % 0.13 in /  3.3 mm
17:47 68.7 °F /  20.4 °C 66 °F /  18.9 °C 29.9 in /  1012.1 hPa West 3 mph /  4.8 km/h 14 mph /  22.5 km/h 91 % 0.13 in /  3.3 mm
17:52 68.9 °F /  20.5 °C 66.6 °F /  19.2 °C 29.9 in /  1012.1 hPa SSW 3 mph /  4.8 km/h 15 mph /  24.1 km/h 92 % 0.13 in /  3.3 mm
17:57 69.3 °F /  20.7 °C 66.6 °F /  19.2 °C 29.9 in /  1012.1 hPa WSW 5 mph /  8.0 km/h 15 mph /  24.1 km/h 91 % 0.06 in /  1.5 mm
18:02 69.4 °F /  20.8 °C 66.7 °F /  19.3 °C 29.9 in /  1012.1 hPa WSW 6 mph /  9.7 km/h 15 mph /  24.1 km/h 91 % 0.06 in /  1.5 mm
18:12 69.8 °F /  21.0 °C 66.7 °F /  19.3 °C 29.9 in /  1012.1 hPa WSW 3 mph /  4.8 km/h 13 mph /  20.9 km/h 90 % 0.06 in /  1.5 mm
18:17 70 °F /  21.1 °C 66.9 °F /  19.4 °C 29.9 in /  1012.1 hPa WSW 3 mph /  4.8 km/h 12 mph /  19.3 km/h 90 % 0.01 in /  0.3 mm
18:22 70 °F /  21.1 °C 66.9 °F /  19.4 °C 29.9 in /  1012.1 hPa WSW 5 mph /  8.0 km/h 12 mph /  19.3 km/h 90 % 0.01 in /  0.3 mm
18:27 70 °F /  21.1 °C 66.9 °F /  19.4 °C 29.9 in /  1012.1 hPa West 3 mph /  4.8 km/h 11 mph /  17.7 km/h 90 % 0 in /  0.0 mm
18:32 70 °F /  21.1 °C 66.6 °F /  19.2 °C 29.9 in /  1011.7 hPa SW 2 mph /  3.2 km/h 11 mph /  17.7 km/h 89 % 0 in /  0.0 mm
18:42 70.3 °F /  21.3 °C 66.9 °F /  19.4 °C 29.9 in /  1011.7 hPa SW 2 mph /  3.2 km/h 9 mph /  14.5 km/h 89 % 0 in /  0.0 mm
18:52 70.7 °F /  21.5 °C 66.9 °F /  19.4 °C 29.9 in /  1011.7 hPa SW 4 mph /  6.4 km/h 9 mph /  14.5 km/h 88 % 0 in /  0.0 mm
18:57 71.1 °F /  21.7 °C 66.9 °F /  19.4 °C 29.9 in /  1011.7 hPa West 5 mph /  8.0 km/h 8 mph /  12.9 km/h 87 % 0 in /  0.0 mm
19:02 71.4 °F /  21.9 °C 66.7 °F /  19.3 °C 29.9 in /  1011.7 hPa SW 6 mph /  9.7 km/h 8 mph /  12.9 km/h 85 % 0 in /  0.0 mm
19:07 71.4 °F /  21.9 °C 66.7 °F /  19.3 °C 29.9 in /  1011.7 hPa West 3 mph /  4.8 km/h 11 mph /  17.7 km/h 85 % 0 in /  0.0 mm
19:12 71.4 °F /  21.9 °C 66 °F /  18.9 °C 29.9 in /  1011.7 hPa WNW 2 mph /  3.2 km/h 11 mph /  17.7 km/h 83 % 0 in /  0.0 mm
19:17 71.6 °F /  22.0 °C 66.2 °F /  19.0 °C 29.9 in /  1011.7 hPa West 6 mph /  9.7 km/h 11 mph /  17.7 km/h 83 % 0 in /  0.0 mm
19:22 71.6 °F /  22.0 °C 65.8 °F /  18.8 °C 29.9 in /  1011.7 hPa WSW 5 mph /  8.0 km/h 10 mph /  16.1 km/h 82 % 0 in /  0.0 mm
19:27 71.4 °F /  21.9 °C 65.3 °F /  18.5 °C 29.9 in /  1011.7 hPa West 3 mph /  4.8 km/h 13 mph /  20.9 km/h 81 % 0 in /  0.0 mm
19:32 71.4 °F /  21.9 °C 65.7 °F /  18.7 °C 29.9 in /  1011.7 hPa West 3 mph /  4.8 km/h 13 mph /  20.9 km/h 82 % 0 in /  0.0 mm
19:37 71.4 °F /  21.9 °C 65.7 °F /  18.7 °C 29.9 in /  1011.7 hPa WNW 3 mph /  4.8 km/h 11 mph /  17.7 km/h 82 % 0 in /  0.0 mm
19:42 71.4 °F /  21.9 °C 66 °F /  18.9 °C 29.9 in /  1011.7 hPa SW 2 mph /  3.2 km/h 9 mph /  14.5 km/h 83 % 0 in /  0.0 mm
19:47 71.4 °F /  21.9 °C 65.3 °F /  18.5 °C 29.9 in /  1011.7 hPa WSW 2 mph /  3.2 km/h 9 mph /  14.5 km/h 81 % 0 in /  0.0 mm
19:52 71.4 °F /  21.9 °C 65.3 °F /  18.5 °C 29.9 in /  1011.7 hPa WSW 4 mph /  6.4 km/h 8 mph /  12.9 km/h 81 % 0 in /  0.0 mm
19:57 71.4 °F /  21.9 °C 65.3 °F /  18.5 °C 29.9 in /  1011.7 hPa WNW 2 mph /  3.2 km/h 11 mph /  17.7 km/h 81 % 0 in /  0.0 mm
20:02 71.4 °F /  21.9 °C 65.3 °F /  18.5 °C 29.9 in /  1011.7 hPa WSW 5 mph /  8.0 km/h 11 mph /  17.7 km/h 81 % 0 in /  0.0 mm
20:12 71.2 °F /  21.8 °C 65.1 °F /  18.4 °C 29.9 in /  1011.7 hPa WSW 3 mph /  4.8 km/h 11 mph /  17.7 km/h 81 % 0 in /  0.0 mm
20:17 71.1 °F /  21.7 °C 64.6 °F /  18.1 °C 29.9 in /  1012.1 hPa West 3 mph /  4.8 km/h 6 mph /  9.7 km/h 80 % 0 in /  0.0 mm
20:22 70.9 °F /  21.6 °C 64.4 °F /  18.0 °C 29.9 in /  1012.1 hPa WSW 3 mph /  4.8 km/h 7 mph /  11.3 km/h 80 % 0 in /  0.0 mm
20:32 70.5 °F /  21.4 °C 63.7 °F /  17.6 °C 29.9 in /  1012.1 hPa West 2 mph /  3.2 km/h 7 mph /  11.3 km/h 79 % 0 in /  0.0 mm
20:42 70.2 °F /  21.2 °C 63.7 °F /  17.6 °C 29.9 in /  1012.1 hPa WNW 1 mph /  1.6 km/h 7 mph /  11.3 km/h 80 % 0 in /  0.0 mm
20:47 70 °F /  21.1 °C 63.5 °F /  17.5 °C 29.9 in /  1012.1 hPa SW 2 mph /  3.2 km/h 5 mph /  8.0 km/h 80 % 0 in /  0.0 mm
20:52 69.8 °F /  21.0 °C 63.3 °F /  17.4 °C 29.9 in /  1012.4 hPa West 2 mph /  3.2 km/h 5 mph /  8.0 km/h 80 % 0 in /  0.0 mm
20:57 69.6 °F /  20.9 °C 63.1 °F /  17.3 °C 29.9 in /  1012.4 hPa WSW 3 mph /  4.8 km/h 5 mph /  8.0 km/h 80 % 0 in /  0.0 mm
21:02 69.4 °F /  20.8 °C 63 °F /  17.2 °C 29.9 in /  1012.4 hPa WSW 3 mph /  4.8 km/h 5 mph /  8.0 km/h 80 % 0 in /  0.0 mm
21:12 69.3 °F /  20.7 °C 62.8 °F /  17.1 °C 29.9 in /  1012.8 hPa WSW 1 mph /  1.6 km/h 6 mph /  9.7 km/h 80 % 0 in /  0.0 mm
21:17 69.3 °F /  20.7 °C 62.4 °F /  16.9 °C 29.9 in /  1012.8 hPa Calm   6 mph /  9.7 km/h 79 % 0 in /  0.0 mm
21:27 69.1 °F /  20.6 °C 62.2 °F /  16.8 °C 29.9 in /  1012.8 hPa West 4 mph /  6.4 km/h 5 mph /  8.0 km/h 79 % 0 in /  0.0 mm
21:32 69.1 °F /  20.6 °C 61.9 °F /  16.6 °C 29.9 in /  1012.8 hPa WNW 3 mph /  4.8 km/h 5 mph /  8.0 km/h 78 % 0 in /  0.0 mm
21:37 68.9 °F /  20.5 °C 62.1 °F /  16.7 °C 29.9 in /  1012.8 hPa NW 2 mph /  3.2 km/h 6 mph /  9.7 km/h 79 % 0 in /  0.0 mm
21:42 68.5 °F /  20.3 °C 62.4 °F /  16.9 °C 29.9 in /  1012.8 hPa NW 2 mph /  3.2 km/h 6 mph /  9.7 km/h 81 % 0 in /  0.0 mm
21:47 68.2 °F /  20.1 °C 62.4 °F /  16.9 °C 29.9 in /  1012.8 hPa NW 2 mph /  3.2 km/h 6 mph /  9.7 km/h 82 % 0 in /  0.0 mm
21:52 67.8 °F /  19.9 °C 62.4 °F /  16.9 °C 29.9 in /  1012.8 hPa Calm   5 mph /  8.0 km/h 83 % 0 in /  0.0 mm
21:57 67.6 °F /  19.8 °C 62.6 °F /  17.0 °C 29.9 in /  1013.1 hPa NNW 1 mph /  1.6 km/h 4 mph /  6.4 km/h 84 % 0 in /  0.0 mm
22:02 67.5 °F /  19.7 °C 62.8 °F /  17.1 °C 29.9 in /  1013.1 hPa Calm   4 mph /  6.4 km/h 85 % 0 in /  0.0 mm
22:12 66.9 °F /  19.4 °C 62.2 °F /  16.8 °C 29.9 in /  1013.4 hPa NNW 4 mph /  6.4 km/h 4 mph /  6.4 km/h 85 % 0 in /  0.0 mm
22:17 66.7 °F /  19.3 °C 62.1 °F /  16.7 °C 29.9 in /  1013.4 hPa NW 2 mph /  3.2 km/h 3 mph /  4.8 km/h 85 % 0 in /  0.0 mm
22:22 66.6 °F /  19.2 °C 61.9 °F /  16.6 °C 29.9 in /  1013.4 hPa West 1 mph /  1.6 km/h 4 mph /  6.4 km/h 85 % 0 in /  0.0 mm
22:32 66.6 °F /  19.2 °C 61.9 °F /  16.6 °C 29.9 in /  1013.8 hPa Calm   4 mph /  6.4 km/h 85 % 0 in /  0.0 mm
22:42 66.4 °F /  19.1 °C 61.7 °F /  16.5 °C 29.9 in /  1013.8 hPa Calm   2 mph /  3.2 km/h 85 % 0 in /  0.0 mm
22:47 66.2 °F /  19.0 °C 61.5 °F /  16.4 °C 29.9 in /  1013.8 hPa Calm   2 mph /  3.2 km/h 85 % 0 in /  0.0 mm
22:52 66 °F /  18.9 °C 61.7 °F /  16.5 °C 29.9 in /  1013.8 hPa NNW 1 mph /  1.6 km/h 2 mph /  3.2 km/h 86 % 0 in /  0.0 mm
22:57 65.8 °F /  18.8 °C 61.5 °F /  16.4 °C 29.9 in /  1013.8 hPa NNW 1 mph /  1.6 km/h 1 mph /  1.6 km/h 86 % 0 in /  0.0 mm
23:02 65.8 °F /  18.8 °C 61.5 °F /  16.4 °C 29.9 in /  1013.8 hPa NNW 1 mph /  1.6 km/h 2 mph /  3.2 km/h 86 % 0 in /  0.0 mm
23:12 65.7 °F /  18.7 °C 61.3 °F /  16.3 °C 29.9 in /  1013.8 hPa Calm   2 mph /  3.2 km/h 86 % 0 in /  0.0 mm
23:17 65.5 °F /  18.6 °C 61.5 °F /  16.4 °C 29.9 in /  1013.8 hPa Calm   1 mph /  1.6 km/h 87 % 0 in /  0.0 mm
23:22 65.5 °F /  18.6 °C 61.5 °F /  16.4 °C 29.9 in /  1014.1 hPa Calm   1 mph /  1.6 km/h 87 % 0 in /  0.0 mm
23:27 65.3 °F /  18.5 °C 61.7 °F /  16.5 °C 29.9 in /  1014.1 hPa Calm   1 mph /  1.6 km/h 88 % 0 in /  0.0 mm
23:37 64.9 °F /  18.3 °C 61.7 °F /  16.5 °C 29.9 in /  1014.1 hPa Calm     89 % 0 in /  0.0 mm
23:42 64.8 °F /  18.2 °C 61.7 °F /  16.5 °C 30 in /  1014.4 hPa Calm     90 % 0 in /  0.0 mm
23:52 64.6 °F /  18.1 °C 61.5 °F /  16.4 °C 30 in /  1014.4 hPa Calm     90 % 0 in /  0.0 mm
Meteo18
Compliments of Weather Underground - 4 mb

Script developed by  Jim McMurry - jmcmurry@mwt.net Adapted for the template by  Wim van der Kuil - Leuven-Template.eu

You find our weather info also at:

European Weather Network

Weather Underground

Equipment we use:

Weather-station
Davis Vue

Weather-program
Meteohub

Weather-server
Raspberry PI 2 B+

Provider
1 and 1

Davis Vue

Meteohub

Raspberry PI 2 B+

1 and 1